createdAt,value
2023-02-24T00:02:06.248Z,99127.72
2023-02-24T00:04:38.692Z,99116.47
2023-02-24T00:07:10.480Z,99122.75
2023-02-24T00:09:40.669Z,99123.00
2023-02-24T00:12:15.443Z,99123.78
2023-02-24T00:14:46.754Z,99116.97
2023-02-24T00:17:16.321Z,99111.22
2023-02-24T00:19:46.550Z,99112.28
2023-02-24T00:22:15.898Z,99111.47
2023-02-24T00:24:46.440Z,99107.53
2023-02-24T00:27:17.317Z,99101.53
2023-02-24T00:29:47.856Z,99099.16
2023-02-24T00:32:17.481Z,99097.59
2023-02-24T00:34:47.920Z,99097.59
2023-02-24T00:37:23.939Z,99087.16
2023-02-24T00:39:57.646Z,99073.56
2023-02-24T00:42:28.477Z,99075.66
2023-02-24T00:44:57.872Z,99075.66
2023-02-24T00:47:27.266Z,99080.09
2023-02-24T00:49:56.774Z,99068.34
2023-02-24T00:52:27.921Z,99072.50
2023-02-24T00:54:58.945Z,99076.16
2023-02-24T00:57:35.490Z,99077.16
2023-02-24T01:00:10.422Z,99070.38
2023-02-24T01:02:39.786Z,99074.03
2023-02-24T01:05:12.890Z,99076.34
2023-02-24T01:07:42.250Z,99069.31
2023-02-24T01:10:13.718Z,99065.13
2023-02-24T01:12:54.147Z,99056.75
2023-02-24T01:15:24.676Z,99037.94
2023-02-24T01:17:54.200Z,99044.75
2023-02-24T01:20:23.836Z,99037.94
2023-02-24T01:22:54.721Z,99040.31
2023-02-24T01:25:24.494Z,99040.81
2023-02-24T01:27:55.218Z,99044.22
2023-02-24T01:30:24.750Z,99041.84
2023-02-24T01:32:54.263Z,99036.63
2023-02-24T01:35:24.318Z,99039.25
2023-02-24T01:37:53.853Z,99030.91
2023-02-24T01:40:26.322Z,99039.50
2023-02-24T01:42:57.456Z,99031.38
2023-02-24T01:45:30.269Z,99030.09
2023-02-24T01:48:03.488Z,99024.09
2023-02-24T01:50:36.072Z,99032.97
2023-02-24T01:53:08.849Z,99031.38
2023-02-24T01:55:46.721Z,99024.56
2023-02-24T01:58:26.174Z,99028.22
2023-02-24T02:00:58.297Z,99023.50
2023-02-24T02:03:32.921Z,99017.00
2023-02-24T02:06:05.371Z,99013.06
2023-02-24T02:08:37.674Z,99010.72
2023-02-24T02:11:10.811Z,99009.69
2023-02-24T02:13:45.824Z,99005.50
2023-02-24T02:16:43.709Z,99001.56
2023-02-24T02:19:58.018Z,99010.09
2023-02-24T02:22:47.283Z,99010.09
2023-02-24T02:25:25.514Z,99008.53
2023-02-24T02:28:46.022Z,99000.16
2023-02-24T02:31:51.114Z,98996.22
2023-02-24T02:34:41.795Z,98999.63
2023-02-24T02:37:16.058Z,98994.19
2023-02-24T02:39:58.959Z,98991.56
2023-02-24T02:42:32.274Z,98993.38
2023-02-24T02:45:10.464Z,98985.56
2023-02-24T02:47:45.374Z,98989.72
2023-02-24T02:50:22.589Z,98985.56
2023-02-24T02:52:57.796Z,98977.75
2023-02-24T02:55:34.642Z,98978.53
2023-02-24T02:58:09.296Z,98982.97
2023-02-24T03:00:50.192Z,98974.34
2023-02-24T03:03:21.182Z,98970.16
2023-02-24T03:05:58.169Z,98962.59
2023-02-24T03:08:34.437Z,98970.66
2023-02-24T03:11:06.242Z,98970.13
2023-02-24T03:13:41.856Z,98975.59
2023-02-24T03:16:13.653Z,98964.38
2023-02-24T03:18:51.057Z,98964.63
2023-02-24T03:21:29.497Z,98964.38
2023-02-24T03:23:59.204Z,98958.38
2023-02-24T03:26:33.399Z,98962.81
2023-02-24T03:29:11.115Z,98965.16
2023-02-24T03:31:47.668Z,98961.22
2023-02-24T03:34:23.971Z,98956.81
2023-02-24T03:36:55.723Z,98960.97
2023-02-24T03:39:26.109Z,98955.25
2023-02-24T03:42:09.091Z,98956.81
2023-02-24T03:44:38.560Z,98947.41
2023-02-24T03:47:09.623Z,98943.25
2023-02-24T03:49:43.668Z,98942.44
2023-02-24T03:52:25.874Z,98940.88
2023-02-24T03:55:13.960Z,98938.53
2023-02-24T03:58:01.056Z,98931.19
2023-02-24T04:00:56.350Z,98934.81
2023-02-24T04:03:32.637Z,98929.34
2023-02-24T04:06:21.274Z,98927.00
2023-02-24T04:09:01.380Z,98927.00
2023-02-24T04:11:43.920Z,98932.22
2023-02-24T04:14:24.941Z,98930.66
2023-02-24T04:17:01.222Z,98930.66
2023-02-24T04:19:38.537Z,98930.66
2023-02-24T04:22:11.874Z,98932.72
2023-02-24T04:24:45.690Z,98924.91
2023-02-24T04:27:17.393Z,98925.94
2023-02-24T04:29:52.416Z,98925.16
2023-02-24T04:32:27.060Z,98921.75
2023-02-24T04:35:04.947Z,98912.13
2023-02-24T04:37:37.278Z,98909.53
2023-02-24T04:40:12.309Z,98905.56
2023-02-24T04:42:46.676Z,98901.41
2023-02-24T04:45:17.803Z,98897.75
2023-02-24T04:47:51.301Z,98904.00
2023-02-24T04:50:25.354Z,98890.44
2023-02-24T04:52:56.976Z,98892.03
2023-02-24T04:55:33.160Z,98895.66
2023-02-24T04:58:03.450Z,98882.09
2023-02-24T05:00:35.925Z,98876.88
2023-02-24T05:03:07.972Z,98858.66
2023-02-24T05:05:37.452Z,98860.47
2023-02-24T05:08:09.911Z,98854.47
2023-02-24T05:10:45.024Z,98856.53
2023-02-24T05:13:17.352Z,98868.78
2023-02-24T05:15:49.818Z,98854.97
2023-02-24T05:18:20.329Z,98845.56
2023-02-24T05:21:09.913Z,98842.19
2023-02-24T05:23:44.328Z,98834.88
2023-02-24T05:26:18.561Z,98831.47
2023-02-24T05:28:52.287Z,98832.75
2023-02-24T05:31:26.538Z,98837.19
2023-02-24T05:33:58.839Z,98825.19
2023-02-24T05:36:30.980Z,98828.28
2023-02-24T05:39:06.815Z,98824.91
2023-02-24T05:41:42.000Z,98819.97
2023-02-24T05:44:16.847Z,98815.75
2023-02-24T05:46:49.808Z,98812.63
2023-02-24T05:49:23.503Z,98819.66
2023-02-24T05:51:57.958Z,98808.44
2023-02-24T05:54:30.198Z,98814.69
2023-02-24T05:57:02.753Z,98810.53
2023-02-24T05:59:33.765Z,98802.72
2023-02-24T06:02:07.514Z,98805.31
2023-02-24T06:04:46.676Z,98801.91
2023-02-24T06:07:20.084Z,98795.94
2023-02-24T06:09:53.848Z,98801.16
2023-02-24T06:12:28.479Z,98803.75
2023-02-24T06:14:59.217Z,98795.41
2023-02-24T06:17:29.980Z,98792.78
2023-02-24T06:19:59.951Z,98804.78
2023-02-24T06:22:29.659Z,98802.41
2023-02-24T06:24:59.027Z,98795.41
2023-02-24T06:27:29.761Z,98805.81
2023-02-24T06:29:59.162Z,98800.06
2023-02-24T06:32:28.636Z,98806.84
2023-02-24T06:34:59.450Z,98805.25
2023-02-24T06:37:30.017Z,98801.09
2023-02-24T06:39:59.519Z,98800.31
2023-02-24T06:42:30.311Z,98803.16
2023-02-24T06:44:59.937Z,98798.47
2023-02-24T06:47:29.338Z,98793.50
2023-02-24T06:49:58.706Z,98803.66
2023-02-24T06:52:28.097Z,98800.50
2023-02-24T06:54:57.775Z,98802.06
2023-02-24T06:57:29.090Z,98803.13
2023-02-24T06:59:59.930Z,98811.97
2023-02-24T07:02:39.674Z,98805.72
2023-02-24T07:05:14.566Z,98816.38
2023-02-24T07:07:46.106Z,98807.78
2023-02-24T07:10:15.754Z,98810.38
2023-02-24T07:12:45.135Z,98813.78
2023-02-24T07:15:17.816Z,98801.56
2023-02-24T07:17:48.487Z,98814.56
2023-02-24T07:20:25.645Z,98803.13
2023-02-24T07:22:55.062Z,98801.56
2023-02-24T07:25:33.413Z,98802.56
2023-02-24T07:28:02.978Z,98816.63
2023-02-24T07:30:34.630Z,98808.00
2023-02-24T07:33:04.989Z,98795.78
2023-02-24T07:35:35.629Z,98790.59
2023-02-24T07:38:05.728Z,98798.41
2023-02-24T07:40:36.486Z,98790.06
2023-02-24T07:43:06.463Z,98790.84
2023-02-24T07:45:37.309Z,98799.19
2023-02-24T07:48:06.735Z,98790.59
2023-02-24T07:50:38.207Z,98786.44
2023-02-24T07:53:07.803Z,98793.19
2023-02-24T07:55:38.054Z,98796.84
2023-02-24T07:58:07.464Z,98790.06
2023-02-24T08:00:58.816Z,98788.78
2023-02-24T08:03:31.196Z,98790.06
2023-02-24T08:06:13.095Z,98786.91
2023-02-24T08:08:58.001Z,98780.16
2023-02-24T08:11:34.662Z,98777.53
2023-02-24T08:14:04.583Z,98775.94
2023-02-24T08:16:40.779Z,98773.34
2023-02-24T08:19:13.384Z,98763.72
2023-02-24T08:21:47.473Z,98757.72
2023-02-24T08:24:19.547Z,98762.94
2023-02-24T08:27:05.254Z,98754.88
2023-02-24T08:29:40.466Z,98758.03
2023-02-24T08:32:12.264Z,98749.97
2023-02-24T08:34:44.368Z,98747.13
2023-02-24T08:37:15.811Z,98739.06
2023-02-24T08:39:46.178Z,98740.16
2023-02-24T08:42:15.645Z,98740.41
2023-02-24T08:44:46.050Z,98737.06
2023-02-24T08:47:21.275Z,98738.13
2023-02-24T08:49:53.860Z,98742.84
2023-02-24T08:52:23.380Z,98739.25
2023-02-24T08:54:54.645Z,98738.75
2023-02-24T08:57:26.149Z,98732.25
2023-02-24T08:59:58.740Z,98736.47
2023-02-24T09:02:29.989Z,98734.13
2023-02-24T09:05:03.726Z,98728.19
2023-02-24T09:07:36.863Z,98724.06
2023-02-24T09:10:11.707Z,98719.66
2023-02-24T09:12:43.557Z,98720.22
2023-02-24T09:15:15.861Z,98710.34
2023-02-24T09:18:01.441Z,98707.28
2023-02-24T09:20:48.042Z,98704.72
2023-02-24T09:23:21.113Z,98696.16
2023-02-24T09:25:54.716Z,98699.34
2023-02-24T09:28:26.747Z,98692.06
2023-02-24T09:30:58.952Z,98693.66
2023-02-24T09:33:39.063Z,98683.78
2023-02-24T09:36:13.087Z,98682.53
2023-02-24T09:39:09.821Z,98675.50
2023-02-24T09:41:57.006Z,98664.03
2023-02-24T09:44:34.470Z,98666.88
2023-02-24T09:47:20.015Z,98666.31
2023-02-24T09:49:56.729Z,98660.53
2023-02-24T09:52:39.924Z,98655.78
2023-02-24T09:55:26.174Z,98657.53
2023-02-24T09:58:43.074Z,98648.34
2023-02-24T10:01:31.163Z,98647.75
2023-02-24T10:04:20.253Z,98638.56
2023-02-24T10:07:05.717Z,98628.84
2023-02-24T10:09:38.765Z,98633.03
2023-02-24T10:12:17.403Z,98622.56
2023-02-24T10:15:00.546Z,98630.41
2023-02-24T10:17:40.402Z,98621.00
2023-02-24T10:20:31.100Z,98620.50
2023-02-24T10:23:09.872Z,98618.63
2023-02-24T10:25:54.249Z,98628.34
2023-02-24T10:28:36.869Z,98622.31
2023-02-24T10:31:25.316Z,98623.66
2023-02-24T10:34:01.175Z,98619.47
2023-02-24T10:36:36.320Z,98610.03
2023-02-24T10:39:20.579Z,98606.94
2023-02-24T10:41:57.559Z,98605.34
2023-02-24T10:44:36.497Z,98602.72
2023-02-24T10:47:14.335Z,98593.31
2023-02-24T10:49:57.258Z,98600.13
2023-02-24T10:52:45.615Z,98590.19
2023-02-24T10:55:39.334Z,98587.88
2023-02-24T10:58:27.826Z,98575.81
2023-02-24T11:01:12.719Z,98578.72
2023-02-24T11:04:02.172Z,98566.69
2023-02-24T11:06:51.490Z,98571.91
2023-02-24T11:09:35.041Z,98566.16
2023-02-24T11:12:33.300Z,98556.75
2023-02-24T11:15:25.455Z,98556.53
2023-02-24T11:17:58.435Z,98541.88
2023-02-24T11:20:48.079Z,98543.47
2023-02-24T11:23:24.566Z,98536.38
2023-02-24T11:26:00.100Z,98536.38
2023-02-24T11:28:56.012Z,98528.53
2023-02-24T11:31:41.279Z,98513.91
2023-02-24T11:34:21.638Z,98516.50
2023-02-24T11:37:02.896Z,98503.97
2023-02-24T11:39:50.084Z,98501.13
2023-02-24T11:42:28.136Z,98507.41
2023-02-24T11:45:06.568Z,98494.59
2023-02-24T11:47:43.596Z,98498.28
2023-02-24T11:50:30.850Z,98484.66
2023-02-24T11:53:06.327Z,98482.91
2023-02-24T11:55:42.621Z,98466.44
2023-02-24T11:58:20.653Z,98474.84
2023-02-24T12:00:59.003Z,98467.53
2023-02-24T12:03:36.971Z,98456.06
2023-02-24T12:06:18.506Z,98459.22
2023-02-24T12:08:53.998Z,98456.09
2023-02-24T12:11:35.589Z,98446.69
2023-02-24T12:14:37.483Z,98437.03
2023-02-24T12:17:19.033Z,98441.44
2023-02-24T12:20:01.698Z,98438.34
2023-02-24T12:22:40.014Z,98425.53
2023-02-24T12:25:15.117Z,98423.97
2023-02-24T12:27:59.740Z,98420.84
2023-02-24T12:30:49.696Z,98418.00
2023-02-24T12:33:43.861Z,98419.84
2023-02-24T12:36:30.782Z,98415.91
2023-02-24T12:39:09.524Z,98400.81
2023-02-24T12:42:04.961Z,98401.34
2023-02-24T12:44:46.004Z,98399.75
2023-02-24T12:47:18.684Z,98392.97
2023-02-24T12:50:23.333Z,98389.84
2023-02-24T12:53:01.625Z,98382.00
2023-02-24T12:55:42.538Z,98378.63
2023-02-24T12:58:17.592Z,98374.16
2023-02-24T13:01:03.372Z,98367.41
2023-02-24T13:03:56.485Z,98360.34
2023-02-24T13:06:41.587Z,98359.03
2023-02-24T13:09:22.794Z,98346.75
2023-02-24T13:11:56.654Z,98341.25
2023-02-24T13:14:31.832Z,98337.56
2023-02-24T13:17:19.874Z,98328.94
2023-02-24T13:19:52.207Z,98325.31
2023-02-24T13:22:30.454Z,98318.22
2023-02-24T13:25:19.927Z,98305.16
2023-02-24T13:28:00.843Z,98309.84
2023-02-24T13:30:42.020Z,98300.41
2023-02-24T13:33:29.698Z,98300.13
2023-02-24T13:36:14.546Z,98294.13
2023-02-24T13:38:50.118Z,98289.41
2023-02-24T13:41:40.634Z,98283.91
2023-02-24T13:44:27.801Z,98281.28
2023-02-24T13:47:30.264Z,98283.09
2023-02-24T13:50:20.838Z,98276.31
2023-02-24T13:53:23.684Z,98273.72
2023-02-24T13:56:15.153Z,98267.44
2023-02-24T13:59:25.176Z,98262.50
2023-02-24T14:02:01.049Z,98272.66
2023-02-24T14:04:33.335Z,98266.41
2023-02-24T14:07:11.732Z,98261.16
2023-02-24T14:09:45.754Z,98262.19
2023-02-24T14:12:20.795Z,98262.19
2023-02-24T14:14:51.128Z,98253.09
2023-02-24T14:17:28.544Z,98247.09
2023-02-24T14:20:11.117Z,98253.91
2023-02-24T14:22:45.643Z,98242.16
2023-02-24T14:25:15.793Z,98234.13
2023-02-24T14:27:49.373Z,98240.91
2023-02-24T14:30:29.031Z,98225.50
2023-02-24T14:32:58.510Z,98223.66
2023-02-24T14:35:36.006Z,98216.31
2023-02-24T14:38:06.497Z,98228.34
2023-02-24T14:40:35.518Z,98220.19
2023-02-24T14:43:16.239Z,98225.44
2023-02-24T14:45:51.340Z,98218.38
2023-02-24T14:48:27.666Z,98215.78
2023-02-24T14:51:00.665Z,98210.53
2023-02-24T14:53:31.516Z,98209.00
2023-02-24T14:56:05.856Z,98200.63
2023-02-24T14:58:44.431Z,98201.19
2023-02-24T15:01:24.068Z,98200.69
2023-02-24T15:03:57.124Z,98201.25
2023-02-24T15:06:30.837Z,98192.63
2023-02-24T15:09:04.854Z,98197.09
2023-02-24T15:11:37.168Z,98196.28
2023-02-24T15:14:20.922Z,98190.78
2023-02-24T15:16:54.589Z,98192.63
2023-02-24T15:19:28.395Z,98191.84
2023-02-24T15:21:57.456Z,98176.72
2023-02-24T15:24:30.004Z,98181.97
2023-02-24T15:27:02.319Z,98172.81
2023-02-24T15:29:33.075Z,98169.72
2023-02-24T15:32:07.337Z,98171.25
2023-02-24T15:34:38.212Z,98171.06
2023-02-24T15:37:17.206Z,98171.59
2023-02-24T15:39:46.744Z,98161.97
2023-02-24T15:42:28.373Z,98162.25
2023-02-24T15:45:00.653Z,98160.19
2023-02-24T15:47:33.580Z,98153.41
2023-02-24T15:50:02.618Z,98152.63
2023-02-24T15:52:31.772Z,98153.69
2023-02-24T15:55:02.589Z,98153.44
2023-02-24T15:57:33.607Z,98151.88
2023-02-24T16:00:11.552Z,98149.56
2023-02-24T16:02:41.524Z,98149.81
2023-02-24T16:05:15.136Z,98137.31
2023-02-24T16:07:46.387Z,98133.69
2023-02-24T16:10:22.573Z,98143.34
2023-02-24T16:12:55.076Z,98142.88
2023-02-24T16:15:30.429Z,98141.59
2023-02-24T16:17:59.794Z,98140.56
2023-02-24T16:20:32.485Z,98134.84
2023-02-24T16:23:04.332Z,98138.50
2023-02-24T16:25:39.408Z,98136.72
2023-02-24T16:28:08.478Z,98133.59
2023-02-24T16:30:39.147Z,98123.41
2023-02-24T16:33:11.770Z,98130.50
2023-02-24T16:35:42.358Z,98134.41
2023-02-24T16:38:15.229Z,98133.91
2023-02-24T16:40:47.322Z,98129.97
2023-02-24T16:43:17.313Z,98135.50
2023-02-24T16:45:48.182Z,98137.31
2023-02-24T16:48:21.959Z,98139.41
2023-02-24T16:50:51.955Z,98137.59
2023-02-24T16:53:23.737Z,98139.44
2023-02-24T16:55:52.822Z,98134.50
2023-02-24T16:58:23.334Z,98132.16
2023-02-24T17:00:59.015Z,98135.03
2023-02-24T17:03:39.769Z,98128.81
2023-02-24T17:06:09.040Z,98128.56
2023-02-24T17:08:38.228Z,98127.56
2023-02-24T17:11:07.924Z,98135.66
2023-02-24T17:13:37.157Z,98141.41
2023-02-24T17:16:10.268Z,98147.16
2023-02-24T17:18:39.298Z,98152.16
2023-02-24T17:21:08.352Z,98140.69
2023-02-24T17:23:37.422Z,98159.75
2023-02-24T17:26:06.880Z,98161.34
2023-02-24T17:28:35.874Z,98159.28
2023-02-24T17:31:09.030Z,98167.13
2023-02-24T17:33:38.111Z,98163.22
2023-02-24T17:36:07.599Z,98168.72
2023-02-24T17:38:39.602Z,98178.63
2023-02-24T17:41:08.624Z,98178.13
2023-02-24T17:43:37.606Z,98179.94
2023-02-24T17:46:07.480Z,98179.16
2023-02-24T17:48:37.988Z,98179.69
2023-02-24T17:51:07.164Z,98192.22
2023-02-24T17:53:36.168Z,98193.53
2023-02-24T17:56:07.446Z,98190.66
2023-02-24T17:58:36.971Z,98193.03
2023-02-24T18:01:07.796Z,98189.91
2023-02-24T18:03:38.499Z,98197.72
2023-02-24T18:06:10.369Z,98193.31
2023-02-24T18:08:40.816Z,98206.91
2023-02-24T18:11:13.857Z,98207.44
2023-02-24T18:13:42.916Z,98212.09
2023-02-24T18:16:14.181Z,98220.19
2023-02-24T18:18:44.611Z,98225.91
2023-02-24T18:21:13.990Z,98223.56
2023-02-24T18:23:43.169Z,98224.88
2023-02-24T18:26:13.909Z,98232.19
2023-02-24T18:28:43.286Z,98228.25
2023-02-24T18:31:15.095Z,98239.22
2023-02-24T18:33:47.866Z,98243.38
2023-02-24T18:36:20.923Z,98242.91
2023-02-24T18:38:50.233Z,98241.56
2023-02-24T18:41:23.393Z,98241.81
2023-02-24T18:43:55.745Z,98241.31
2023-02-24T18:46:28.131Z,98237.44
2023-02-24T18:48:58.876Z,98242.38
2023-02-24T18:51:29.050Z,98248.09
2023-02-24T18:54:00.572Z,98244.22
2023-02-24T18:56:32.317Z,98246.03
2023-02-24T18:59:05.217Z,98242.16
2023-02-24T19:01:36.924Z,98245.53
2023-02-24T19:04:08.812Z,98245.53
2023-02-24T19:06:38.105Z,98250.19
2023-02-24T19:09:10.851Z,98248.91
2023-02-24T19:11:41.383Z,98256.19
2023-02-24T19:14:13.873Z,98257.50
2023-02-24T19:16:43.260Z,98277.53
2023-02-24T19:19:16.050Z,98273.63
2023-02-24T19:21:45.907Z,98285.34
2023-02-24T19:24:15.306Z,98284.81
2023-02-24T19:26:45.922Z,98279.88
2023-02-24T19:29:16.336Z,98284.56
2023-02-24T19:31:45.729Z,98282.50
2023-02-24T19:34:16.445Z,98280.41
2023-02-24T19:36:48.422Z,98277.78
2023-02-24T19:39:18.649Z,98284.53
2023-02-24T19:41:49.687Z,98278.28
2023-02-24T19:44:21.453Z,98285.06
2023-02-24T19:46:53.160Z,98279.31
2023-02-24T19:49:23.522Z,98283.22
2023-02-24T19:51:55.227Z,98274.59
2023-02-24T19:54:27.957Z,98278.22
2023-02-24T19:56:57.881Z,98276.13
2023-02-24T19:59:27.180Z,98269.88
2023-02-24T20:01:56.253Z,98274.03
2023-02-24T20:04:26.719Z,98279.75
2023-02-24T20:06:55.706Z,98278.44
2023-02-24T20:09:24.905Z,98271.91
2023-02-24T20:11:57.252Z,98266.22
2023-02-24T20:14:30.635Z,98265.66
2023-02-24T20:17:00.445Z,98273.47
2023-02-24T20:19:34.658Z,98274.50
2023-02-24T20:22:04.527Z,98273.97
2023-02-24T20:24:35.812Z,98262.81
2023-02-24T20:27:05.236Z,98268.28
2023-02-24T20:29:35.303Z,98265.13
2023-02-24T20:32:04.823Z,98264.59
2023-02-24T20:34:37.527Z,98257.84
2023-02-24T20:37:07.552Z,98262.75
2023-02-24T20:39:36.627Z,98263.25
2023-02-24T20:42:05.714Z,98258.81
2023-02-24T20:44:34.830Z,98263.75
2023-02-24T20:47:03.904Z,98260.88
2023-02-24T20:49:34.355Z,98258.81
2023-02-24T20:52:06.615Z,98252.28
2023-02-24T20:54:36.054Z,98256.72
2023-02-24T20:57:05.280Z,98252.00
2023-02-24T20:59:34.276Z,98249.41
2023-02-24T21:02:03.299Z,98247.56
2023-02-24T21:04:32.318Z,98245.47
2023-02-24T21:07:02.850Z,98253.00
2023-02-24T21:09:37.116Z,98250.41
2023-02-24T21:12:09.633Z,98247.03
2023-02-24T21:14:38.773Z,98241.06
2023-02-24T21:17:08.244Z,98239.47
2023-02-24T21:19:37.271Z,98240.53
2023-02-24T21:22:07.766Z,98242.06
2023-02-24T21:24:36.804Z,98246.78
2023-02-24T21:27:05.829Z,98247.78
2023-02-24T21:29:34.892Z,98248.81
2023-02-24T21:32:04.376Z,98240.28
2023-02-24T21:34:33.439Z,98250.66
2023-02-24T21:37:02.625Z,98255.84
2023-02-24T21:39:33.268Z,98245.72
2023-02-24T21:42:02.256Z,98250.91
2023-02-24T21:44:31.560Z,98236.31
2023-02-24T21:47:00.531Z,98246.72
2023-02-24T21:49:30.257Z,98230.34
2023-02-24T21:51:59.252Z,98243.56
2023-02-24T21:54:28.630Z,98243.56
2023-02-24T21:56:59.148Z,98250.84
2023-02-24T21:59:28.238Z,98255.25
2023-02-24T22:01:57.588Z,98251.34
2023-02-24T22:04:26.607Z,98267.19
2023-02-24T22:06:55.681Z,98254.97
2023-02-24T22:09:25.573Z,98273.94
2023-02-24T22:11:54.548Z,98273.16
2023-02-24T22:14:24.940Z,98270.84
2023-02-24T22:16:56.979Z,98275.00
2023-02-24T22:19:26.185Z,98272.13
2023-02-24T22:21:55.164Z,98262.75
2023-02-24T22:24:24.144Z,98269.78
2023-02-24T22:26:55.378Z,98275.00
2023-02-24T22:29:25.716Z,98273.44
2023-02-24T22:31:54.743Z,98273.69
2023-02-24T22:34:23.769Z,98276.53
2023-02-24T22:36:53.647Z,98278.31
2023-02-24T22:39:23.306Z,98267.41
2023-02-24T22:41:52.914Z,98278.03
2023-02-24T22:44:21.917Z,98271.28
2023-02-24T22:46:52.374Z,98272.31
2023-02-24T22:49:21.416Z,98284.53
2023-02-24T22:51:50.559Z,98289.72
2023-02-24T22:54:22.234Z,98296.50
2023-02-24T22:56:51.235Z,98296.50
2023-02-24T22:59:20.245Z,98286.09
2023-02-24T23:01:49.244Z,98284.28
2023-02-24T23:04:19.758Z,98288.44
2023-02-24T23:06:48.805Z,98285.56
2023-02-24T23:09:19.889Z,98290.78
2023-02-24T23:11:49.659Z,98303.75
2023-02-24T23:14:18.887Z,98297.00
2023-02-24T23:16:55.473Z,98300.09
2023-02-24T23:19:25.975Z,98299.81
2023-02-24T23:21:56.472Z,98309.41
2023-02-24T23:24:25.694Z,98311.44
2023-02-24T23:26:57.705Z,98306.78
2023-02-24T23:29:30.806Z,98319.47
2023-02-24T23:32:00.035Z,98316.06
2023-02-24T23:34:30.611Z,98327.75
2023-02-24T23:36:59.649Z,98320.69
2023-02-24T23:39:28.999Z,98313.94
2023-02-24T23:41:58.009Z,98322.53
2023-02-24T23:44:27.190Z,98330.31
2023-02-24T23:46:58.190Z,98328.72
2023-02-24T23:49:39.064Z,98330.56
2023-02-24T23:52:13.145Z,98354.94
2023-02-24T23:54:42.117Z,98346.38
2023-02-24T23:57:11.528Z,98359.63
2023-02-24T23:59:40.524Z,98353.94
